createdAt,value
2023-05-05T00:01:23.372Z,5.15
2023-05-05T00:03:26.141Z,5.60
2023-05-05T00:05:28.515Z,5.70
2023-05-05T00:07:30.744Z,5.72
2023-05-05T00:09:33.032Z,6.18
2023-05-05T00:11:35.209Z,5.68
2023-05-05T00:13:37.428Z,5.88
2023-05-05T00:15:39.817Z,5.47
2023-05-05T00:17:42.060Z,6.00
2023-05-05T00:19:44.268Z,5.78
2023-05-05T00:21:46.452Z,5.95
2023-05-05T00:23:48.655Z,6.00
2023-05-05T00:25:51.160Z,6.45
2023-05-05T00:27:53.401Z,5.47
2023-05-05T00:29:55.600Z,5.90
2023-05-05T00:31:57.930Z,5.32
2023-05-05T00:34:00.253Z,6.38
2023-05-05T00:36:02.540Z,6.25
2023-05-05T00:38:05.072Z,5.88
2023-05-05T00:40:08.018Z,6.28
2023-05-05T00:42:10.461Z,5.85
2023-05-05T00:44:12.756Z,5.50
2023-05-05T00:46:28.082Z,5.60
2023-05-05T00:48:33.322Z,6.35
2023-05-05T00:50:35.625Z,5.93
2023-05-05T00:52:38.462Z,6.03
2023-05-05T00:54:40.921Z,6.00
2023-05-05T00:56:43.415Z,5.50
2023-05-05T00:58:45.631Z,6.43
2023-05-05T01:00:48.242Z,5.65
2023-05-05T01:02:51.925Z,6.18
2023-05-05T01:04:55.278Z,6.80
2023-05-05T01:07:09.465Z,6.30
2023-05-05T01:09:30.411Z,6.15
2023-05-05T01:11:47.723Z,6.43
2023-05-05T01:13:53.393Z,6.10
2023-05-05T01:15:55.790Z,6.10
2023-05-05T01:18:16.849Z,5.55
2023-05-05T01:20:26.102Z,6.55
2023-05-05T01:22:31.925Z,6.32
2023-05-05T01:24:40.339Z,6.43
2023-05-05T01:27:01.141Z,6.32
2023-05-05T01:29:22.916Z,5.93
2023-05-05T01:31:38.580Z,5.72
2023-05-05T01:33:46.932Z,6.18
2023-05-05T01:35:53.185Z,6.50
2023-05-05T01:37:59.904Z,6.65
2023-05-05T01:40:04.279Z,6.20
2023-05-05T01:42:09.309Z,5.93
2023-05-05T01:44:12.416Z,6.32
2023-05-05T01:46:16.095Z,5.63
2023-05-05T01:48:19.124Z,6.30
2023-05-05T01:50:21.852Z,5.55
2023-05-05T01:54:27.245Z,6.05
2023-05-05T01:56:31.331Z,5.82
2023-05-05T01:58:34.088Z,6.05
2023-05-05T02:02:39.561Z,5.30
2023-05-05T02:04:45.431Z,5.82
2023-05-05T02:06:50.494Z,5.95
2023-05-05T02:08:53.295Z,6.00
2023-05-05T02:10:56.091Z,6.75
2023-05-05T02:15:00.984Z,5.60
2023-05-05T02:19:05.911Z,6.15
2023-05-05T02:23:10.586Z,6.45
2023-05-05T02:25:12.891Z,6.38
2023-05-05T02:27:16.909Z,5.85
2023-05-05T02:29:25.305Z,5.75
2023-05-05T02:31:28.444Z,5.85
2023-05-05T02:33:33.943Z,5.78
2023-05-05T02:35:37.344Z,6.47
2023-05-05T02:37:40.031Z,6.30
2023-05-05T02:41:47.559Z,5.75
2023-05-05T02:43:50.780Z,5.85
2023-05-05T02:45:53.003Z,5.82
2023-05-05T02:47:55.325Z,5.70
2023-05-05T02:49:57.708Z,5.80
2023-05-05T02:52:00.147Z,5.88
2023-05-05T02:54:02.720Z,6.05
2023-05-05T02:56:04.953Z,6.22
2023-05-05T02:58:08.365Z,5.47
2023-05-05T03:00:13.774Z,5.90
2023-05-05T03:02:18.955Z,5.60
2023-05-05T03:04:28.053Z,5.93
2023-05-05T03:06:31.853Z,6.50
2023-05-05T03:08:36.719Z,5.60
2023-05-05T03:10:44.947Z,6.13
2023-05-05T03:12:49.594Z,6.05
2023-05-05T03:14:52.937Z,5.93
2023-05-05T03:16:56.643Z,5.22
2023-05-05T03:18:59.597Z,5.75
2023-05-05T03:21:08.461Z,6.18
2023-05-05T03:23:10.688Z,5.97
2023-05-05T03:25:13.958Z,5.35
2023-05-05T03:27:16.420Z,5.68
2023-05-05T03:29:18.599Z,5.60
2023-05-05T03:31:21.124Z,5.60
2023-05-05T03:33:23.415Z,5.80
2023-05-05T03:35:25.643Z,5.35
2023-05-05T03:37:27.768Z,6.25
2023-05-05T03:39:29.931Z,5.63
2023-05-05T03:41:32.220Z,6.13
2023-05-05T03:43:34.489Z,6.57
2023-05-05T03:45:36.672Z,5.93
2023-05-05T03:47:38.913Z,5.80
2023-05-05T03:49:41.067Z,6.80
2023-05-05T03:51:43.270Z,5.78
2023-05-05T03:53:45.639Z,5.97
2023-05-05T03:55:47.894Z,6.15
2023-05-05T03:57:50.120Z,5.78
2023-05-05T03:59:52.360Z,6.07
2023-05-05T04:01:54.863Z,6.18
2023-05-05T04:03:57.266Z,5.68
2023-05-05T04:05:59.553Z,5.72
2023-05-05T04:08:01.756Z,5.30
2023-05-05T04:10:04.000Z,5.53
2023-05-05T04:12:06.530Z,5.68
2023-05-05T04:14:08.725Z,5.57
2023-05-05T04:16:11.094Z,5.45
2023-05-05T04:18:13.432Z,5.97
2023-05-05T04:20:15.670Z,5.90
2023-05-05T04:22:17.899Z,5.90
2023-05-05T04:24:24.904Z,6.47
2023-05-05T04:26:27.889Z,5.88
2023-05-05T04:28:30.137Z,5.82
2023-05-05T04:30:32.458Z,5.60
2023-05-05T04:32:34.728Z,5.75
2023-05-05T04:34:37.010Z,5.82
2023-05-05T04:36:39.162Z,5.30
2023-05-05T04:38:41.627Z,5.85
2023-05-05T04:40:43.856Z,6.15
2023-05-05T04:42:46.351Z,5.72
2023-05-05T04:44:48.524Z,5.50
2023-05-05T04:46:50.819Z,5.63
2023-05-05T04:48:53.056Z,6.03
2023-05-05T04:50:55.205Z,6.28
2023-05-05T04:52:57.390Z,5.45
2023-05-05T04:54:59.937Z,5.82
2023-05-05T04:57:02.343Z,5.65
2023-05-05T04:59:04.506Z,5.35
2023-05-05T05:01:06.788Z,5.10
2023-05-05T05:03:10.044Z,5.88
2023-05-05T05:05:12.212Z,5.93
2023-05-05T05:07:17.421Z,6.05
2023-05-05T05:09:19.597Z,6.10
2023-05-05T05:11:22.169Z,5.90
2023-05-05T05:13:24.513Z,6.20
2023-05-05T05:15:26.824Z,6.32
2023-05-05T05:17:30.406Z,5.97
2023-05-05T05:19:32.637Z,6.25
2023-05-05T05:21:34.845Z,6.05
2023-05-05T05:23:37.272Z,5.20
2023-05-05T05:25:39.464Z,5.80
2023-05-05T05:27:41.922Z,6.10
2023-05-05T05:29:44.127Z,5.53
2023-05-05T05:31:46.306Z,5.70
2023-05-05T05:33:48.535Z,5.47
2023-05-05T05:35:50.771Z,5.30
2023-05-05T05:37:52.971Z,5.22
2023-05-05T05:39:55.118Z,5.50
2023-05-05T05:41:57.352Z,4.38
2023-05-05T05:44:02.037Z,4.80
2023-05-05T05:46:04.694Z,5.22
2023-05-05T05:48:08.077Z,5.30
2023-05-05T05:50:10.584Z,4.78
2023-05-05T05:52:12.879Z,5.20
2023-05-05T05:54:17.370Z,5.30
2023-05-05T05:56:19.571Z,5.65
2023-05-05T05:58:21.791Z,6.95
2023-05-05T06:00:24.085Z,4.60
2023-05-05T06:02:27.240Z,5.20
2023-05-05T06:04:30.880Z,4.95
2023-05-05T06:06:33.143Z,5.03
2023-05-05T06:08:35.307Z,4.47
2023-05-05T06:10:37.423Z,4.28
2023-05-05T06:12:39.626Z,4.28
2023-05-05T06:14:41.815Z,4.32
2023-05-05T06:16:44.295Z,4.13
2023-05-05T06:18:46.455Z,3.70
2023-05-05T06:20:51.631Z,4.00
2023-05-05T06:22:53.889Z,3.92
2023-05-05T06:24:56.040Z,3.95
2023-05-05T06:26:59.493Z,3.78
2023-05-05T06:29:01.687Z,3.70
2023-05-05T06:31:03.899Z,3.60
2023-05-05T06:33:06.095Z,3.30
2023-05-05T06:35:09.027Z,3.75
2023-05-05T06:37:11.356Z,4.03
2023-05-05T06:39:15.765Z,3.20
2023-05-05T06:41:18.250Z,3.63
2023-05-05T06:43:20.425Z,3.38
2023-05-05T06:45:22.650Z,3.08
2023-05-05T06:47:24.789Z,3.15
2023-05-05T06:49:26.910Z,3.03
2023-05-05T06:51:29.113Z,2.95
2023-05-05T06:53:31.343Z,3.50
2023-05-05T06:55:33.521Z,2.75
2023-05-05T06:57:35.796Z,3.00
2023-05-05T06:59:37.966Z,3.25
2023-05-05T07:01:40.100Z,3.17
2023-05-05T07:03:42.505Z,3.25
2023-05-05T07:05:44.663Z,3.42
2023-05-05T07:07:52.836Z,2.80
2023-05-05T07:09:55.046Z,3.42
2023-05-05T07:11:57.230Z,2.90
2023-05-05T07:13:59.366Z,3.10
2023-05-05T07:16:01.670Z,2.88
2023-05-05T07:18:04.113Z,2.92
2023-05-05T07:20:06.815Z,2.90
2023-05-05T07:22:09.022Z,3.35
2023-05-05T07:24:11.218Z,2.85
2023-05-05T07:26:13.433Z,2.97
2023-05-05T07:28:15.683Z,3.13
2023-05-05T07:30:19.156Z,3.35
2023-05-05T07:32:21.818Z,3.40
2023-05-05T07:34:24.028Z,3.10
2023-05-05T07:36:27.898Z,2.95
2023-05-05T07:38:30.054Z,2.88
2023-05-05T07:40:33.876Z,3.00
2023-05-05T07:42:36.224Z,2.92
2023-05-05T07:44:38.404Z,3.30
2023-05-05T07:46:40.646Z,3.83
2023-05-05T07:48:42.838Z,3.35
2023-05-05T07:50:45.130Z,3.13
2023-05-05T07:52:53.790Z,3.05
2023-05-05T07:55:01.426Z,3.47
2023-05-05T07:57:03.601Z,3.42
2023-05-05T07:59:05.913Z,3.60
2023-05-05T08:01:10.967Z,3.58
2023-05-05T08:03:13.246Z,3.08
2023-05-05T08:05:16.508Z,2.95
2023-05-05T08:07:18.741Z,2.95
2023-05-05T08:09:20.897Z,4.03
2023-05-05T08:11:23.066Z,3.78
2023-05-05T08:13:25.450Z,3.38
2023-05-05T08:15:27.685Z,3.95
2023-05-05T08:17:29.846Z,3.90
2023-05-05T08:19:32.020Z,3.80
2023-05-05T08:21:34.151Z,3.95
2023-05-05T08:23:36.722Z,3.92
2023-05-05T08:25:38.845Z,3.53
2023-05-05T08:27:41.605Z,3.28
2023-05-05T08:31:46.086Z,3.67
2023-05-05T08:33:48.301Z,3.78
2023-05-05T08:35:50.518Z,3.50
2023-05-05T08:37:52.793Z,3.67
2023-05-05T08:39:54.933Z,3.58
2023-05-05T08:41:57.104Z,4.38
2023-05-05T08:43:59.307Z,3.97
2023-05-05T08:46:01.608Z,3.25
2023-05-05T08:48:05.320Z,3.28
2023-05-05T08:50:10.919Z,2.90
2023-05-05T08:52:18.443Z,3.40
2023-05-05T08:54:21.042Z,3.25
2023-05-05T08:56:23.194Z,3.80
2023-05-05T08:58:27.015Z,3.40
2023-05-05T09:00:31.445Z,3.63
2023-05-05T09:02:33.783Z,3.50
2023-05-05T09:04:36.363Z,4.32
2023-05-05T09:06:38.722Z,4.05
2023-05-05T09:08:41.017Z,3.97
2023-05-05T09:10:44.582Z,3.97
2023-05-05T09:12:46.830Z,4.20
2023-05-05T09:14:49.091Z,3.58
2023-05-05T09:16:51.331Z,3.97
2023-05-05T09:19:02.289Z,3.45
2023-05-05T09:21:19.690Z,3.03
2023-05-05T09:23:22.159Z,3.70
2023-05-05T09:25:24.370Z,3.70
2023-05-05T09:27:26.613Z,4.10
2023-05-05T09:29:28.925Z,3.45
2023-05-05T09:31:32.366Z,3.63
2023-05-05T09:33:34.619Z,4.32
2023-05-05T09:35:49.037Z,3.90
2023-05-05T09:37:51.283Z,3.60
2023-05-05T09:39:57.195Z,3.58
2023-05-05T09:41:59.409Z,3.78
2023-05-05T09:44:01.668Z,3.40
2023-05-05T09:46:08.517Z,3.60
2023-05-05T09:48:26.536Z,3.03
2023-05-05T09:50:30.976Z,3.65
2023-05-05T09:52:33.503Z,3.15
2023-05-05T09:54:36.015Z,3.80
2023-05-05T09:56:40.235Z,3.13
2023-05-05T09:58:42.886Z,3.15
2023-05-05T10:00:45.964Z,3.22
2023-05-05T10:02:48.186Z,3.50
2023-05-05T10:04:50.486Z,3.28
2023-05-05T10:06:52.608Z,3.40
2023-05-05T10:09:04.131Z,3.70
2023-05-05T10:11:06.969Z,3.08
2023-05-05T10:13:10.301Z,2.78
2023-05-05T10:15:12.608Z,3.30
2023-05-05T10:17:16.255Z,3.22
2023-05-05T10:19:19.493Z,2.88
2023-05-05T10:21:21.915Z,3.15
2023-05-05T10:23:24.997Z,3.50
2023-05-05T10:25:32.961Z,3.22
2023-05-05T10:27:40.133Z,3.05
2023-05-05T10:29:54.243Z,3.20
2023-05-05T10:31:59.009Z,2.85
2023-05-05T10:34:04.239Z,2.65
2023-05-05T10:36:07.735Z,3.85
2023-05-05T10:38:09.988Z,3.38
2023-05-05T10:40:12.958Z,2.72
2023-05-05T10:42:16.154Z,3.15
2023-05-05T10:44:18.919Z,3.13
2023-05-05T10:48:35.057Z,3.05
2023-05-05T10:50:39.900Z,2.97
2023-05-05T10:53:02.574Z,2.80
2023-05-05T10:55:23.342Z,2.67
2023-05-05T10:57:27.185Z,2.90
2023-05-05T10:59:39.056Z,2.90
2023-05-05T11:01:41.582Z,2.83
2023-05-05T11:03:43.812Z,2.78
2023-05-05T11:06:04.073Z,3.22
2023-05-05T11:08:25.611Z,3.20
2023-05-05T11:10:44.130Z,2.78
2023-05-05T11:12:57.403Z,2.50
2023-05-05T11:15:18.118Z,2.60
2023-05-05T11:17:38.761Z,2.75
2023-05-05T11:19:44.240Z,2.38
2023-05-05T11:22:03.303Z,2.42
2023-05-05T11:24:24.104Z,2.45
2023-05-05T11:26:45.075Z,2.33
2023-05-05T11:28:57.929Z,2.53
2023-05-05T11:31:00.085Z,2.92
2023-05-05T11:33:20.820Z,2.65
2023-05-05T11:35:23.021Z,2.75
2023-05-05T11:37:25.364Z,2.80
2023-05-05T11:39:37.038Z,3.15
2023-05-05T11:41:44.426Z,3.17
2023-05-05T11:43:46.547Z,2.80
2023-05-05T11:45:48.741Z,3.60
2023-05-05T11:47:51.144Z,2.97
2023-05-05T11:49:53.338Z,3.20
2023-05-05T11:52:01.607Z,2.80
2023-05-05T11:54:03.893Z,2.90
2023-05-05T11:56:09.454Z,2.83
2023-05-05T11:58:21.038Z,2.45
2023-05-05T12:00:32.861Z,2.70
2023-05-05T12:02:35.507Z,2.85
2023-05-05T12:06:40.406Z,3.10
2023-05-05T12:10:44.695Z,4.22
2023-05-05T12:12:47.285Z,4.93
2023-05-05T12:14:53.086Z,4.63
2023-05-05T12:17:01.269Z,4.35
2023-05-05T12:19:05.755Z,4.80
2023-05-05T12:21:15.633Z,6.15
2023-05-05T12:23:17.853Z,4.72
2023-05-05T12:25:20.038Z,5.20
2023-05-05T12:27:22.305Z,5.13
2023-05-05T12:29:25.387Z,5.20
2023-05-05T12:31:37.226Z,5.20
2023-05-05T12:33:40.344Z,4.60
2023-05-05T12:35:42.567Z,4.13
2023-05-05T12:37:45.462Z,4.10
2023-05-05T12:39:47.652Z,4.13
2023-05-05T12:41:50.552Z,4.13
2023-05-05T12:43:57.062Z,3.85
2023-05-05T12:46:05.342Z,3.90
2023-05-05T12:48:23.268Z,3.95
2023-05-05T12:50:32.391Z,4.72
2023-05-05T12:52:42.440Z,3.83
2023-05-05T12:54:55.042Z,4.18
2023-05-05T12:56:58.548Z,4.88
2023-05-05T12:59:01.473Z,3.97
2023-05-05T13:01:10.429Z,4.57
2023-05-05T13:03:21.752Z,4.72
2023-05-05T13:05:31.632Z,4.85
2023-05-05T13:07:33.768Z,4.78
2023-05-05T13:09:36.002Z,5.03
2023-05-05T13:11:38.949Z,4.68
2023-05-05T13:13:42.110Z,4.20
2023-05-05T13:15:44.529Z,5.25
2023-05-05T13:17:46.780Z,5.07
2023-05-05T13:19:49.052Z,5.68
2023-05-05T13:23:54.825Z,5.10
2023-05-05T13:25:59.496Z,5.30
2023-05-05T13:28:01.753Z,4.20
2023-05-05T13:30:04.502Z,4.75
2023-05-05T13:32:07.968Z,4.65
2023-05-05T13:34:10.304Z,4.47
2023-05-05T13:36:12.530Z,4.80
2023-05-05T13:38:14.760Z,4.78
2023-05-05T13:40:16.985Z,5.32
2023-05-05T13:42:19.157Z,5.03
2023-05-05T13:44:21.988Z,4.40
2023-05-05T13:46:24.232Z,4.30
2023-05-05T13:48:26.498Z,3.80
2023-05-05T13:50:29.171Z,4.20
2023-05-05T13:54:34.501Z,4.10
2023-05-05T13:56:37.086Z,3.67
2023-05-05T14:00:41.267Z,4.05
2023-05-05T14:02:43.923Z,3.88
2023-05-05T14:06:48.579Z,3.73
2023-05-05T14:08:51.651Z,3.85
2023-05-05T14:10:53.949Z,3.40
2023-05-05T14:12:56.757Z,3.70
2023-05-05T14:14:59.327Z,3.22
2023-05-05T14:17:01.540Z,3.28
2023-05-05T14:19:03.864Z,3.75
2023-05-05T14:21:06.229Z,4.22
2023-05-05T14:23:08.404Z,4.50
2023-05-05T14:25:10.644Z,4.05
2023-05-05T14:27:12.928Z,4.70
2023-05-05T14:29:15.087Z,3.80
2023-05-05T14:31:17.804Z,4.57
2023-05-05T14:33:20.224Z,4.50
2023-05-05T14:35:22.477Z,4.72
2023-05-05T14:37:24.799Z,3.75
2023-05-05T14:39:27.059Z,4.50
2023-05-05T14:41:29.239Z,4.03
2023-05-05T14:43:31.431Z,4.60
2023-05-05T14:45:33.652Z,4.05
2023-05-05T14:47:35.938Z,4.32
2023-05-05T14:49:38.129Z,4.18
2023-05-05T14:51:41.010Z,4.90
2023-05-05T14:53:43.276Z,4.07
2023-05-05T14:55:45.506Z,3.67
2023-05-05T14:57:47.644Z,3.63
2023-05-05T14:59:51.999Z,3.72
2023-05-05T15:01:54.547Z,3.42
2023-05-05T15:03:57.238Z,3.72
2023-05-05T15:05:59.542Z,3.80
2023-05-05T15:08:01.892Z,3.95
2023-05-05T15:10:04.794Z,4.18
2023-05-05T15:12:07.334Z,5.22
2023-05-05T15:14:09.521Z,4.10
2023-05-05T15:16:11.718Z,4.85
2023-05-05T15:18:13.898Z,4.90
2023-05-05T15:20:16.106Z,4.30
2023-05-05T15:22:18.264Z,4.22
2023-05-05T15:24:21.733Z,4.68
2023-05-05T15:26:24.110Z,5.75
2023-05-05T15:28:26.343Z,5.95
2023-05-05T15:30:28.636Z,5.38
2023-05-05T15:32:30.835Z,5.38
2023-05-05T15:34:33.186Z,5.13
2023-05-05T15:36:35.353Z,5.15
2023-05-05T15:38:42.826Z,4.95
2023-05-05T15:40:47.222Z,4.65
2023-05-05T15:42:51.430Z,4.25
2023-05-05T15:44:53.560Z,4.63
2023-05-05T15:46:56.118Z,4.25
2023-05-05T15:48:58.237Z,5.53
2023-05-05T15:51:00.671Z,5.75
2023-05-05T15:53:02.788Z,4.72
2023-05-05T15:55:05.125Z,5.53
2023-05-05T15:57:07.545Z,6.00
2023-05-05T15:59:09.826Z,6.53
2023-05-05T16:01:12.001Z,5.50
2023-05-05T16:03:14.389Z,5.55
2023-05-05T16:05:16.593Z,6.47
2023-05-05T16:07:18.986Z,6.03
2023-05-05T16:09:21.288Z,6.00
2023-05-05T16:11:23.943Z,5.47
2023-05-05T16:15:28.130Z,5.72
2023-05-05T16:17:30.410Z,5.15
2023-05-05T16:19:32.639Z,5.47
2023-05-05T16:21:34.795Z,5.38
2023-05-05T16:23:37.032Z,5.65
2023-05-05T16:25:39.234Z,6.35
2023-05-05T16:27:41.358Z,7.30
2023-05-05T16:29:43.498Z,6.63
2023-05-05T16:31:45.678Z,5.90
2023-05-05T16:33:47.878Z,6.65
2023-05-05T16:35:50.068Z,6.00
2023-05-05T16:37:52.620Z,6.38
2023-05-05T16:41:56.867Z,5.45
2023-05-05T16:43:59.052Z,6.22
2023-05-05T16:46:01.537Z,5.72
2023-05-05T16:50:06.406Z,6.38
2023-05-05T16:52:08.585Z,6.07
2023-05-05T16:54:10.812Z,5.75
2023-05-05T16:56:13.136Z,5.82
2023-05-05T16:58:15.280Z,5.43
2023-05-05T17:00:17.479Z,5.63
2023-05-05T17:02:19.764Z,5.35
2023-05-05T17:04:22.027Z,5.75
2023-05-05T17:06:24.221Z,5.32
2023-05-05T17:08:26.378Z,4.88
2023-05-05T17:10:28.552Z,5.05
2023-05-05T17:12:30.710Z,5.43
2023-05-05T17:14:33.618Z,5.82
2023-05-05T17:16:35.973Z,5.28
2023-05-05T17:18:38.329Z,5.75
2023-05-05T17:20:40.503Z,5.70
2023-05-05T17:22:42.757Z,5.53
2023-05-05T17:24:44.964Z,5.07
2023-05-05T17:26:47.620Z,5.50
2023-05-05T17:30:52.100Z,5.10
2023-05-05T17:32:54.517Z,5.10
2023-05-05T17:34:56.930Z,5.25
2023-05-05T17:36:59.158Z,5.05
2023-05-05T17:39:01.303Z,6.72
2023-05-05T17:41:03.548Z,7.22
2023-05-05T17:43:05.738Z,5.85
2023-05-05T17:45:08.611Z,5.10
2023-05-05T17:47:11.035Z,5.10
2023-05-05T17:49:13.226Z,5.47
2023-05-05T17:51:15.450Z,4.72
2023-05-05T17:53:17.765Z,5.07
2023-05-05T17:55:20.133Z,4.85
2023-05-05T17:57:22.866Z,5.07
2023-05-05T17:59:25.140Z,4.30
2023-05-05T18:01:27.444Z,5.13
2023-05-05T18:03:29.964Z,5.10
2023-05-05T18:05:32.400Z,5.38
2023-05-05T18:07:34.775Z,4.30
2023-05-05T18:09:36.913Z,4.40
2023-05-05T18:11:39.054Z,4.65
2023-05-05T18:13:41.243Z,5.50
2023-05-05T18:15:43.445Z,5.57
2023-05-05T18:17:45.659Z,5.50
2023-05-05T18:19:49.234Z,4.90
2023-05-05T18:21:52.754Z,5.75
2023-05-05T18:24:01.769Z,5.35
2023-05-05T18:26:10.086Z,5.55
2023-05-05T18:28:12.455Z,5.55
2023-05-05T18:30:14.743Z,5.07
2023-05-05T18:32:17.095Z,5.45
2023-05-05T18:34:20.531Z,6.13
2023-05-05T18:36:23.161Z,5.10
2023-05-05T18:38:25.582Z,4.70
2023-05-05T18:40:27.835Z,5.10
2023-05-05T18:42:30.000Z,4.75
2023-05-05T18:44:34.746Z,4.93
2023-05-05T18:46:37.216Z,4.78
2023-05-05T18:48:39.614Z,5.88
2023-05-05T18:50:41.784Z,5.25
2023-05-05T18:52:43.993Z,5.97
2023-05-05T18:54:46.265Z,5.60
2023-05-05T18:56:48.474Z,5.22
2023-05-05T18:58:50.621Z,5.05
2023-05-05T19:00:52.820Z,6.53
2023-05-05T19:02:55.223Z,8.48
2023-05-05T19:04:57.516Z,3.55
2023-05-05T19:07:00.494Z,2.22
2023-05-05T19:09:02.710Z,1.40
2023-05-05T19:11:04.938Z,1.70
2023-05-05T19:13:07.850Z,2.15
2023-05-05T19:15:10.422Z,1.40
2023-05-05T19:19:14.970Z,1.75
2023-05-05T19:21:17.171Z,1.92
2023-05-05T19:23:19.319Z,1.80
2023-05-05T19:25:21.520Z,1.73
2023-05-05T19:27:23.798Z,2.22
2023-05-05T19:29:26.091Z,2.42
2023-05-05T19:31:30.726Z,2.38
2023-05-05T19:33:33.048Z,2.35
2023-05-05T19:35:35.494Z,2.22
2023-05-05T19:37:37.670Z,2.05
2023-05-05T19:39:39.925Z,2.35
2023-05-05T19:41:42.097Z,2.28
2023-05-05T19:43:46.332Z,2.10
2023-05-05T19:45:48.500Z,2.30
2023-05-05T19:47:50.804Z,2.45
2023-05-05T19:49:53.066Z,2.30
2023-05-05T19:51:56.443Z,2.28
2023-05-05T19:53:59.489Z,1.95
2023-05-05T19:56:01.753Z,2.85
2023-05-05T19:58:03.936Z,2.50
2023-05-05T20:00:06.661Z,2.20
2023-05-05T20:02:12.246Z,2.45
2023-05-05T20:04:14.485Z,2.25
2023-05-05T20:06:16.698Z,2.90
2023-05-05T20:08:18.838Z,2.05
2023-05-05T20:10:21.137Z,2.35
2023-05-05T20:12:23.605Z,1.95
2023-05-05T20:14:26.031Z,2.20
2023-05-05T20:16:28.388Z,2.13
2023-05-05T20:18:31.003Z,1.88
2023-05-05T20:20:33.294Z,1.58
2023-05-05T20:22:35.524Z,2.00
2023-05-05T20:24:37.720Z,2.35
2023-05-05T20:26:39.913Z,2.50
2023-05-05T20:28:45.332Z,2.33
2023-05-05T20:30:47.635Z,2.05
2023-05-05T20:32:50.160Z,2.00
2023-05-05T20:34:52.381Z,2.38
2023-05-05T20:36:54.940Z,1.88
2023-05-05T20:38:57.129Z,1.90
2023-05-05T20:40:59.385Z,2.05
2023-05-05T20:43:01.783Z,1.98
2023-05-05T20:45:04.275Z,2.13
2023-05-05T20:47:07.396Z,2.28
2023-05-05T20:49:09.714Z,2.17
2023-05-05T20:51:12.052Z,1.88
2023-05-05T20:53:14.967Z,2.00
2023-05-05T20:55:17.131Z,1.70
2023-05-05T20:57:19.365Z,1.83
2023-05-05T20:59:21.534Z,2.03
2023-05-05T21:01:23.936Z,1.80
2023-05-05T21:03:26.294Z,2.30
2023-05-05T21:05:28.491Z,1.58
2023-05-05T21:07:33.074Z,2.20
2023-05-05T21:09:38.373Z,2.33
2023-05-05T21:11:40.646Z,2.20
2023-05-05T21:13:42.819Z,1.95
2023-05-05T21:15:45.098Z,2.10
2023-05-05T21:17:47.831Z,1.67
2023-05-05T21:19:50.023Z,2.05
2023-05-05T21:21:53.671Z,1.67
2023-05-05T21:23:56.104Z,1.60
2023-05-05T21:25:58.299Z,1.70
2023-05-05T21:28:00.501Z,1.60
2023-05-05T21:30:02.637Z,1.77
2023-05-05T21:32:08.900Z,1.85
2023-05-05T21:34:11.456Z,2.40
2023-05-05T21:36:15.417Z,2.20
2023-05-05T21:38:17.560Z,2.17
2023-05-05T21:40:19.800Z,2.63
2023-05-05T21:42:22.033Z,2.22
2023-05-05T21:44:25.716Z,2.17
2023-05-05T21:46:27.945Z,2.38
2023-05-05T21:48:31.298Z,2.53
2023-05-05T21:50:33.647Z,2.70
2023-05-05T21:52:36.029Z,2.53
2023-05-05T21:54:38.269Z,2.38
2023-05-05T21:56:40.566Z,2.47
2023-05-05T21:58:42.757Z,2.58
2023-05-05T22:00:45.026Z,2.45
2023-05-05T22:02:47.555Z,2.50
2023-05-05T22:04:51.573Z,2.60
2023-05-05T22:06:53.727Z,2.60
2023-05-05T22:08:56.953Z,2.25
2023-05-05T22:10:59.156Z,2.40
2023-05-05T22:13:01.345Z,3.00
2023-05-05T22:15:03.747Z,3.05
2023-05-05T22:17:06.273Z,2.60
2023-05-05T22:19:08.424Z,2.70
2023-05-05T22:21:10.696Z,3.17
2023-05-05T22:23:14.117Z,2.78
2023-05-05T22:25:16.329Z,3.15
2023-05-05T22:27:18.492Z,3.17
2023-05-05T22:29:20.635Z,2.97
2023-05-05T22:31:22.785Z,3.25
2023-05-05T22:33:24.939Z,3.38
2023-05-05T22:35:27.380Z,3.38
2023-05-05T22:37:29.645Z,3.22
2023-05-05T22:39:33.232Z,3.38
2023-05-05T22:41:35.546Z,2.75
2023-05-05T22:43:37.759Z,3.17
2023-05-05T22:45:39.961Z,3.38
2023-05-05T22:47:42.284Z,3.05
2023-05-05T22:49:44.493Z,3.40
2023-05-05T22:51:47.405Z,3.45
2023-05-05T22:53:49.557Z,3.17
2023-05-05T22:55:52.074Z,3.40
2023-05-05T22:57:54.241Z,3.40
2023-05-05T22:59:56.430Z,3.20
2023-05-05T23:01:58.566Z,3.97
2023-05-05T23:04:00.746Z,3.45
2023-05-05T23:06:02.921Z,3.40
2023-05-05T23:08:05.537Z,3.90
2023-05-05T23:10:07.911Z,3.00
2023-05-05T23:12:10.052Z,3.60
2023-05-05T23:14:12.148Z,3.65
2023-05-05T23:16:14.306Z,3.55
2023-05-05T23:18:16.486Z,3.80
2023-05-05T23:20:18.651Z,4.00
2023-05-05T23:22:20.973Z,3.40
2023-05-05T23:24:23.170Z,3.25
2023-05-05T23:26:25.791Z,3.05
2023-05-05T23:28:27.961Z,3.45
2023-05-05T23:30:30.234Z,3.25
2023-05-05T23:32:32.511Z,3.25
2023-05-05T23:34:34.687Z,3.88
2023-05-05T23:36:36.826Z,3.08
2023-05-05T23:38:38.954Z,3.40
2023-05-05T23:40:41.104Z,3.08
2023-05-05T23:42:43.267Z,3.38
2023-05-05T23:44:45.480Z,3.60
2023-05-05T23:46:47.629Z,2.90
2023-05-05T23:48:49.941Z,3.35
2023-05-05T23:50:53.094Z,3.28
2023-05-05T23:52:55.233Z,3.15
2023-05-05T23:54:57.355Z,2.95
2023-05-05T23:57:00.268Z,3.28
2023-05-05T23:59:02.449Z,3.10
